Terminal Aerodrome Forecast
Issued by NWS

Home | Current Version | Previous Version | Text Only | Print | Product List | Glossary On
Versions: 1 2 3 4 5 6 7 8 9 10 11 12 13 14 15 16 17 18 19 20 21 22 23 24 25 26 27 28 29 30 31 32 33 34 35 36
000
FTUS44 KHGX 201339 AAA
TAFSGR
TAF AMD
KSGR 201339Z 2014/2112 15004KT P6SM VCSH SCT020
     FM201500 18008KT P6SM BKN025
     FM201800 17010KT P6SM VCSH SCT025 BKN040
     FM210100 16006KT P6SM FEW250
     FM210900 VRB03KT P6SM SCT015=

USA.gov is the U.S. government's official web portal to all federal, state and local government web resources and services.